Time;durP1;ratioP1;P1;durP2;ratioP2;P2;SDS_P1;SDS_P2;PMS_P1;PMS_P2;Temp;Humidity;BMP_temperature;BMP_pressure;BME280_temperature;BME280_humidity;BME280_pressure;Samples;Min_cycle;Max_cycle;Signal;HPM_P1;HPM_P2
2023/06/26 03:01:09;;;;;;;66.50;62.58;;;15.70;99.90;;;;;;5488180;23;20237;-69
2023/06/26 03:03:40;;;;;;;81.03;76.03;;;15.70;99.90;;;;;;4878202;29;20185;-69
2023/06/26 03:06:09;;;;;;;82.20;77.40;;;15.70;99.90;;;;;;4868786;29;20314;-69
2023/06/26 03:08:37;;;;;;;90.90;85.93;;;15.70;99.90;;;;;;4878307;29;20236;-69
2023/06/26 03:11:03;;;;;;;82.17;77.40;;;15.70;99.90;;;;;;4862164;29;20210;-69
2023/06/26 03:13:28;;;;;;;85.18;80.20;;;15.70;99.90;;;;;;4884062;23;20251;-69
2023/06/26 03:15:54;;;;;;;70.17;66.10;;;15.70;99.90;;;;;;4875530;29;20192;-70
2023/06/26 03:18:20;;;;;;;74.50;70.17;;;15.70;99.90;;;;;;4877475;29;20192;-70
2023/06/26 03:20:46;;;;;;;71.30;67.00;;;15.70;99.90;;;;;;4875477;29;20221;-69
2023/06/26 03:23:11;;;;;;;68.33;64.50;;;15.60;99.90;;;;;;4857776;29;20331;-69
2023/06/26 03:25:37;;;;;;;74.03;69.67;;;15.60;99.90;;;;;;4858694;29;20292;-70
2023/06/26 03:28:03;;;;;;;70.77;66.70;;;15.60;99.90;;;;;;4858801;29;20687;-70
2023/06/26 03:30:29;;;;;;;58.40;54.93;;;15.60;99.90;;;;;;4856593;29;20603;-70
2023/06/26 03:32:54;;;;;;;58.40;54.93;;;15.50;99.90;;;;;;4852441;29;20587;-69
2023/06/26 03:35:20;;;;;;;55.27;51.97;;;15.50;99.90;;;;;;4852839;29;20197;-70
2023/06/26 03:37:46;;;;;;;53.03;48.80;;;15.40;99.90;;;;;;4858123;29;20189;-69
2023/06/26 03:40:12;;;;;;;51.37;48.03;;;15.50;99.90;;;;;;4858950;29;20716;-70
2023/06/26 03:42:37;;;;;;;46.63;43.50;;;15.50;99.90;;;;;;4842544;29;20240;-70
2023/06/26 03:45:03;;;;;;;44.37;41.67;;;15.50;99.90;;;;;;4858463;29;20212;-70
2023/06/26 03:47:29;;;;;;;49.13;46.10;;;15.50;99.90;;;;;;4842128;29;20284;-70
2023/06/26 03:49:55;;;;;;;47.43;44.23;;;15.60;99.90;;;;;;4858870;29;20710;-70
2023/06/26 03:52:21;;;;;;;55.67;52.20;;;15.60;99.90;;;;;;4842215;29;20216;-69
2023/06/26 03:54:48;;;;;;;60.67;56.90;;;15.60;99.90;;;;;;4852671;29;20273;-69
2023/06/26 03:57:14;;;;;;;55.13;51.80;;;15.60;99.90;;;;;;4837241;29;20248;-68
2023/06/26 03:59:40;;;;;;;82.47;77.87;;;15.60;99.90;;;;;;4852992;29;20192;-69
2023/06/26 04:02:05;;;;;;;51.20;48.10;;;15.60;99.90;;;;;;4856658;29;20567;-69
2023/06/26 04:04:31;;;;;;;58.90;55.17;;;15.60;99.90;;;;;;4852558;29;20266;-68
2023/06/26 04:06:59;;;;;;;56.30;52.57;;;15.60;99.90;;;;;;4858417;29;20216;-70
2023/06/26 04:09:25;;;;;;;64.03;60.10;;;15.70;99.90;;;;;;4859015;29;20261;-69
2023/06/26 04:11:51;;;;;;;78.47;73.90;;;15.80;99.90;;;;;;4858299;29;20193;-69
2023/06/26 04:14:17;;;;;;;98.67;93.10;;;15.90;99.90;;;;;;4841815;29;20232;-68
2023/06/26 04:16:43;;;;;;;130.87;123.23;;;15.90;99.90;;;;;;4858532;29;20204;-69
2023/06/26 04:19:10;;;;;;;86.67;81.73;;;16.00;99.90;;;;;;4858184;29;20235;-69
2023/06/26 04:21:36;;;;;;;75.90;71.10;;;16.10;99.90;;;;;;4858387;29;20311;-69
2023/06/26 04:24:01;;;;;;;46.33;43.33;;;16.10;99.90;;;;;;4858395;29;20269;-68
2023/06/26 04:26:27;;;;;;;47.90;44.50;;;16.20;99.90;;;;;;4856791;29;20192;-69
2023/06/26 04:28:54;;;;;;;31.98;29.73;;;16.20;99.90;;;;;;4858115;29;20889;-68
2023/06/26 04:31:20;;;;;;;42.15;39.38;;;16.30;99.90;;;;;;4858594;29;20280;-67
2023/06/26 04:33:50;;;;;;;48.63;45.63;;;16.40;99.90;;;;;;4857936;29;20312;-66
2023/06/26 04:36:17;;;;;;;46.45;43.63;;;16.40;99.90;;;;;;4841201;29;20227;-68
2023/06/26 04:38:43;;;;;;;26.60;24.70;;;16.50;99.90;;;;;;4857900;29;20200;-67
2023/06/26 04:41:09;;;;;;;12.63;11.43;;;16.70;99.90;;;;;;4857464;29;20570;-67
2023/06/26 04:43:35;;;;;;;13.65;10.30;;;16.70;99.90;;;;;;4858305;29;20241;-67
2023/06/26 04:46:03;;;;;;;11.73;10.52;;;16.80;99.90;;;;;;4858090;29;20617;-67
2023/06/26 04:48:30;;;;;;;12.10;10.73;;;17.00;99.90;;;;;;4841180;29;20193;-67
2023/06/26 04:50:58;;;;;;;12.27;9.95;;;17.10;99.90;;;;;;4858187;29;20184;-67
2023/06/26 04:53:25;;;;;;;14.00;12.80;;;17.20;99.90;;;;;;4858084;29;20227;-67
2023/06/26 04:55:52;;;;;;;13.95;12.60;;;17.40;99.90;;;;;;4857984;29;20219;-69
2023/06/26 04:58:18;;;;;;;12.75;11.55;;;17.50;99.90;;;;;;4857566;29;20196;-68
2023/06/26 05:00:44;;;;;;;12.35;11.18;;;17.70;99.90;;;;;;4858106;29;20665;-69
2023/06/26 05:03:11;;;;;;;16.05;14.52;;;17.90;99.90;;;;;;4857254;29;20239;-68
2023/06/26 05:05:37;;;;;;;13.65;12.38;;;18.10;99.90;;;;;;4841440;29;20189;-68
2023/06/26 05:08:31;;;;;;;20.08;18.58;;;18.60;99.90;;;;;;4857339;29;20196;-69
2023/06/26 05:10:59;;;;;;;23.27;21.45;;;19.30;99.90;;;;;;4857573;29;20220;-68
2023/06/26 05:13:26;;;;;;;13.40;11.77;;;20.10;99.90;;;;;;4840917;29;20225;-68
2023/06/26 05:15:52;;;;;;;17.15;15.70;;;20.90;99.90;;;;;;4857554;29;20467;-71
2023/06/26 05:18:18;;;;;;;11.50;10.40;;;21.50;99.90;;;;;;4857178;29;20200;-71
2023/06/26 05:20:45;;;;;;;11.48;10.32;;;22.00;99.90;;;;;;4841224;29;20196;-71
2023/06/26 05:23:13;;;;;;;12.15;10.75;;;22.40;99.90;;;;;;4857498;29;20220;-72
2023/06/26 05:25:40;;;;;;;16.05;11.30;;;22.60;99.90;;;;;;4857539;29;20205;-71
2023/06/26 05:28:09;;;;;;;20.92;19.35;;;22.80;99.90;;;;;;4857142;29;20560;-72
2023/06/26 05:30:36;;;;;;;18.08;16.42;;;23.40;99.90;;;;;;4857854;29;20200;-71
2023/06/26 05:33:02;;;;;;;23.70;22.15;;;23.90;99.90;;;;;;4857072;29;20213;-69
2023/06/26 05:35:30;;;;;;;28.25;26.35;;;24.30;99.90;;;;;;4857615;29;20223;-70
2023/06/26 05:37:56;;;;;;;22.30;20.88;;;24.80;99.90;;;;;;4856782;29;20193;-69
2023/06/26 05:40:22;;;;;;;21.45;19.77;;;25.30;99.90;;;;;;4856994;29;20676;-69
2023/06/26 05:42:49;;;;;;;40.28;37.88;;;25.50;99.90;;;;;;4857167;29;20248;-70
2023/06/26 05:45:15;;;;;;;50.17;47.25;;;25.50;99.10;;;;;;4857536;29;20197;-70
2023/06/26 05:47:41;;;;;;;29.98;28.13;;;26.20;97.90;;;;;;4857278;29;20189;-70
2023/06/26 05:50:08;;;;;;;21.65;20.02;;;26.40;96.50;;;;;;4860978;29;20256;-70
2023/06/26 05:52:35;;;;;;;15.40;14.10;;;25.90;97.00;;;;;;4850023;29;20197;-71
2023/06/26 05:55:02;;;;;;;12.20;11.10;;;25.90;96.70;;;;;;4860861;29;20336;-71
2023/06/26 05:57:29;;;;;;;13.02;12.02;;;26.30;95.90;;;;;;4860382;29;20239;-71
2023/06/26 05:59:56;;;;;;;12.93;11.98;;;26.30;95.00;;;;;;4860869;29;20193;-71
2023/06/26 06:02:21;;;;;;;23.17;21.38;;;26.20;95.40;;;;;;4860226;29;20221;-71
2023/06/26 06:04:47;;;;;;;41.58;39.20;;;26.60;94.50;;;;;;4860583;29;20213;-71
2023/06/26 06:07:13;;;;;;;48.58;45.65;;;27.40;93.00;;;;;;4860425;29;20244;-71
2023/06/26 06:09:39;;;;;;;53.75;50.72;;;27.70;92.30;;;;;;4860154;29;20203;-71
2023/06/26 06:12:06;;;;;;;63.47;59.78;;;28.10;91.20;;;;;;4844179;29;20203;-70
2023/06/26 06:14:32;;;;;;;47.40;44.45;;;28.30;90.10;;;;;;4860298;29;20232;-71
2023/06/26 06:16:58;;;;;;;17.55;16.30;;;28.20;90.30;;;;;;4859781;29;20203;-71
2023/06/26 06:19:24;;;;;;;13.13;12.15;;;28.80;87.90;;;;;;4860139;29;20193;-71
2023/06/26 06:21:50;;;;;;;14.43;13.15;;;29.10;86.80;;;;;;4860361;29;20217;-71
2023/06/26 06:24:16;;;;;;;15.23;14.13;;;29.50;84.30;;;;;;4859637;29;20213;-70
2023/06/26 06:26:42;;;;;;;15.70;14.30;;;29.50;81.70;;;;;;4860137;29;20204;-71
2023/06/26 06:29:08;;;;;;;18.35;16.88;;;29.20;82.70;;;;;;4843265;29;20235;-71
2023/06/26 06:31:33;;;;;;;14.98;13.65;;;29.40;80.80;;;;;;4843639;29;20629;-71
2023/06/26 06:33:59;;;;;;;12.80;11.60;;;29.60;79.70;;;;;;4860402;29;20228;-71
2023/06/26 06:36:25;;;;;;;10.75;9.75;;;29.90;78.80;;;;;;4859492;29;20883;-71
2023/06/26 06:38:51;;;;;;;8.98;8.10;;;30.10;77.50;;;;;;4858399;29;20758;-71
2023/06/26 06:41:17;;;;;;;10.05;9.25;;;29.80;76.80;;;;;;4860558;29;20212;-71
2023/06/26 06:43:43;;;;;;;11.35;8.68;;;29.80;76.90;;;;;;4860272;29;20721;-71
2023/06/26 06:46:09;;;;;;;9.13;8.43;;;30.10;75.80;;;;;;4860019;29;20662;-71
2023/06/26 06:48:35;;;;;;;11.73;10.60;;;30.40;74.20;;;;;;4860668;29;20260;-71
2023/06/26 06:51:01;;;;;;;12.15;11.05;;;30.10;75.60;;;;;;4860900;29;20216;-72
2023/06/26 06:53:27;;;;;;;22.92;21.20;;;30.10;75.40;;;;;;4863714;29;20439;-82
2023/06/26 06:55:53;;;;;;;16.50;15.35;;;30.60;74.30;;;;;;4852658;29;20201;-81
2023/06/26 06:58:19;;;;;;;14.65;13.55;;;30.70;72.60;;;;;;4850200;29;20245;-81
2023/06/26 07:00:45;;;;;;;13.63;12.55;;;30.40;73.40;;;;;;4849459;29;20630;-81
2023/06/26 07:03:11;;;;;;;12.30;10.85;;;30.10;74.00;;;;;;4867140;29;20225;-83
2023/06/26 07:05:38;;;;;;;11.13;9.88;;;30.10;74.00;;;;;;4865839;29;20192;-82
2023/06/26 07:08:04;;;;;;;12.52;11.52;;;29.80;74.80;;;;;;4865760;29;20224;-82
2023/06/26 07:10:31;;;;;;;10.63;9.55;;;29.80;74.70;;;;;;4849253;29;20241;-82
2023/06/26 07:12:57;;;;;;;11.85;10.88;;;30.30;74.10;;;;;;4859038;29;20244;-82
2023/06/26 07:15:23;;;;;;;11.95;10.95;;;30.60;73.70;;;;;;4864874;29;20257;-82
2023/06/26 07:17:48;;;;;;;11.65;10.85;;;31.60;71.90;;;;;;4864551;29;20707;-81
2023/06/26 07:20:17;;;;;;;11.63;10.73;;;32.40;69.20;;;;;;4865391;29;20193;-81
2023/06/26 07:22:44;;;;;;;10.63;9.68;;;32.90;67.60;;;;;;4847057;29;20267;-82
2023/06/26 07:25:11;;;;;;;17.92;16.73;;;33.40;66.50;;;;;;4868504;29;20173;-81
2023/06/26 07:27:41;;;;;;;31.08;29.35;;;33.50;65.40;;;;;;4866531;29;20189;-81
2023/06/26 07:30:11;;;;;;;63.85;60.28;;;33.60;63.80;;;;;;4865582;29;20185;-82
2023/06/26 07:32:37;;;;;;;75.65;71.65;;;33.60;63.20;;;;;;4866186;29;20192;-82
2023/06/26 07:35:04;;;;;;;66.75;63.28;;;33.60;62.70;;;;;;4848795;29;20189;-81
2023/06/26 07:37:30;;;;;;;69.70;66.15;;;33.60;62.40;;;;;;4869346;29;20499;-82
2023/06/26 07:39:57;;;;;;;70.43;66.85;;;33.40;62.20;;;;;;4849993;29;20281;-81
2023/06/26 07:42:23;;;;;;;96.82;91.95;;;33.40;62.20;;;;;;4849970;29;20224;-83
2023/06/26 07:44:49;;;;;;;86.68;82.32;;;33.30;63.30;;;;;;4870889;29;20209;-83
2023/06/26 07:47:15;;;;;;;80.43;76.38;;;33.30;62.10;;;;;;4849407;29;20252;-83
2023/06/26 07:49:41;;;;;;;78.35;74.38;;;33.40;62.00;;;;;;4866159;29;20657;-83
2023/06/26 07:52:10;;;;;;;70.05;66.50;;;33.50;61.90;;;;;;4848932;29;20224;-83
2023/06/26 07:54:36;;;;;;;36.25;34.25;;;33.60;61.50;;;;;;4863142;29;20212;-82
2023/06/26 07:57:06;;;;;;;59.75;56.60;;;33.60;60.00;;;;;;4838106;29;20195;-83
2023/06/26 07:59:32;;;;;;;39.25;36.95;;;33.70;60.90;;;;;;4846725;29;20243;-82
2023/06/26 08:01:59;;;;;;;32.22;30.00;;;33.70;60.30;;;;;;4851154;29;20213;-83
2023/06/26 08:04:27;;;;;;;17.70;16.67;;;34.00;60.40;;;;;;4870776;29;20217;-84
2023/06/26 08:06:54;;;;;;;9.85;9.15;;;34.40;59.10;;;;;;4865602;29;20192;-83
2023/06/26 08:09:25;;;;;;;15.63;14.18;;;34.30;59.00;;;;;;4848316;29;20887;-83
2023/06/26 08:11:51;;;;;;;15.38;14.23;;;34.20;60.10;;;;;;4847469;29;20618;-83
2023/06/26 08:14:17;;;;;;;12.27;11.38;;;34.40;59.60;;;;;;4848287;29;20740;-83
2023/06/26 08:16:44;;;;;;;10.77;9.88;;;34.80;59.50;;;;;;4864488;29;20201;-83
2023/06/26 08:19:14;;;;;;;11.00;10.27;;;34.70;58.20;;;;;;4873069;29;20247;-83
2023/06/26 08:21:43;;;;;;;10.68;9.98;;;34.70;57.40;;;;;;4864567;29;20217;-83
2023/06/26 08:24:10;;;;;;;12.45;11.65;;;34.60;57.70;;;;;;4851026;29;20237;-83
2023/06/26 08:26:37;;;;;;;9.95;9.23;;;34.50;56.70;;;;;;4851893;29;20196;-83
2023/06/26 08:29:09;;;;;;;14.13;13.05;;;34.50;57.20;;;;;;4866092;29;20197;-83
2023/06/26 08:31:36;;;;;;;11.73;10.93;;;34.10;58.10;;;;;;4850370;29;20208;-83
2023/06/26 08:34:03;;;;;;;12.57;11.68;;;34.10;57.40;;;;;;4866109;29;20219;-82
2023/06/26 08:36:29;;;;;;;16.65;15.63;;;34.10;57.80;;;;;;4883509;29;20196;-83
2023/06/26 08:38:55;;;;;;;11.23;10.48;;;34.40;58.00;;;;;;4854177;29;20282;-84
2023/06/26 08:41:22;;;;;;;18.13;16.83;;;34.40;56.20;;;;;;4866807;29;20220;-84
2023/06/26 08:43:50;;;;;;;18.83;17.52;;;34.20;57.60;;;;;;4852990;29;20220;-83
2023/06/26 08:46:17;;;;;;;25.45;23.90;;;34.30;57.00;;;;;;4851587;29;20224;-84
2023/06/26 08:48:48;;;;;;;26.40;24.40;;;34.20;57.40;;;;;;4849744;29;20189;-83
2023/06/26 08:51:17;;;;;;;22.42;20.60;;;34.40;56.80;;;;;;4850511;29;20196;-83
2023/06/26 08:53:51;;;;;;;10.38;9.48;;;34.80;56.00;;;;;;4863419;29;20209;-82
2023/06/26 08:56:21;;;;;;;9.88;9.18;;;35.10;55.00;;;;;;4850981;29;20263;-83
2023/06/26 08:58:47;;;;;;;10.35;9.63;;;35.40;55.30;;;;;;4870521;29;20208;-82
2023/06/26 09:01:13;;;;;;;11.57;10.55;;;35.70;54.30;;;;;;4848552;29;20192;-82
2023/06/26 09:03:41;;;;;;;12.45;11.55;;;35.60;54.10;;;;;;4851654;29;20212;-83
2023/06/26 09:06:07;;;;;;;17.58;16.27;;;35.80;54.00;;;;;;4863218;29;20201;-82
2023/06/26 09:08:34;;;;;;;14.80;13.90;;;35.70;53.50;;;;;;4861980;29;20189;-83
2023/06/26 09:11:00;;;;;;;16.50;15.57;;;35.70;53.70;;;;;;4875981;29;20193;-83
2023/06/26 09:13:25;;;;;;;11.55;10.73;;;35.40;53.60;;;;;;4871263;23;20239;-78
2023/06/26 09:15:54;;;;;;;10.05;9.27;;;35.10;54.10;;;;;;4879382;29;20283;-77
2023/06/26 09:18:21;;;;;;;11.63;10.68;;;34.90;54.80;;;;;;4881321;29;20609;-77
2023/06/26 09:20:47;;;;;;;12.20;11.25;;;34.70;55.30;;;;;;4878870;29;20202;-77
2023/06/26 09:23:14;;;;;;;10.93;10.23;;;34.80;55.70;;;;;;4880333;29;20251;-77
2023/06/26 09:25:41;;;;;;;10.40;9.18;;;35.30;54.90;;;;;;4866193;29;20252;-77
2023/06/26 09:28:08;;;;;;;14.52;13.40;;;35.70;53.50;;;;;;4884177;29;20290;-78
2023/06/26 09:30:34;;;;;;;14.32;13.25;;;35.30;53.60;;;;;;4872023;29;20259;-78
2023/06/26 09:33:16;;;;;;;13.10;12.18;;;35.00;54.50;;;;;;4875618;29;20687;-78
2023/06/26 09:35:43;;;;;;;21.63;19.80;;;35.20;54.20;;;;;;4872203;29;20270;-77
2023/06/26 09:38:10;;;;;;;24.92;23.58;;;35.20;53.50;;;;;;4887821;29;20200;-78
2023/06/26 09:40:37;;;;;;;56.38;53.10;;;35.60;53.30;;;;;;4885273;29;20571;-78
2023/06/26 09:43:08;;;;;;;63.20;59.90;;;35.70;52.80;;;;;;4864178;29;20217;-77
2023/06/26 09:45:36;;;;;;;115.15;109.30;;;35.70;52.90;;;;;;4880102;29;20203;-77
2023/06/26 09:48:05;;;;;;;138.40;131.80;;;35.60;51.80;;;;;;4879513;29;20784;-77
2023/06/26 09:50:37;;;;;;;153.82;146.20;;;35.50;51.50;;;;;;4880663;29;20189;-77
2023/06/26 09:53:11;;;;;;;152.43;145.02;;;35.80;52.00;;;;;;4880090;29;20686;-77
2023/06/26 09:55:38;;;;;;;161.35;153.43;;;36.00;51.90;;;;;;4863670;29;20195;-77
2023/06/26 09:58:04;;;;;;;111.70;106.13;;;36.10;52.20;;;;;;4881702;29;20561;-78
2023/06/26 10:00:31;;;;;;;66.40;62.92;;;36.20;51.40;;;;;;4880653;29;20232;-77
2023/06/26 10:02:58;;;;;;;54.75;51.83;;;36.50;51.30;;;;;;4864248;29;20216;-77
2023/06/26 10:05:24;;;;;;;89.43;85.00;;;35.90;51.10;;;;;;4880841;29;20282;-77
2023/06/26 10:07:50;;;;;;;100.57;95.45;;;35.60;51.80;;;;;;4880035;29;20716;-77
2023/06/26 10:10:17;;;;;;;115.00;108.95;;;35.90;51.80;;;;;;4880020;29;20196;-77
2023/06/26 10:12:47;;;;;;;57.05;53.88;;;36.40;52.10;;;;;;4863253;29;20641;-77
2023/06/26 10:15:16;;;;;;;16.25;15.32;;;37.00;51.20;;;;;;4879550;29;20228;-77
2023/06/26 10:17:43;;;;;;;15.77;14.68;;;37.00;50.10;;;;;;4879203;29;20196;-77
2023/06/26 10:20:09;;;;;;;25.73;24.23;;;36.70;51.30;;;;;;4862194;29;20193;-77
2023/06/26 10:22:41;;;;;;;34.63;32.60;;;36.30;51.30;;;;;;4854674;29;20219;-76
2023/06/26 10:25:08;;;;;;;72.97;69.22;;;35.90;51.30;;;;;;4862580;29;20299;-77
2023/06/26 10:27:41;;;;;;;88.97;84.50;;;35.70;52.40;;;;;;4862152;29;20193;-77
2023/06/26 10:30:14;;;;;;;81.88;77.65;;;35.90;52.30;;;;;;4879144;29;20196;-77
2023/06/26 10:32:40;;;;;;;130.05;123.22;;;36.00;51.50;;;;;;4862566;29;20275;-77
2023/06/26 10:35:07;;;;;;;152.15;144.60;;;35.30;52.70;;;;;;4872282;29;20216;-77
2023/06/26 10:37:47;;;;;;;140.57;133.57;;;34.90;53.20;;;;;;4894875;29;20253;-77
2023/06/26 10:40:20;;;;;;;124.85;118.70;;;35.20;53.00;;;;;;4874637;29;20556;-77
2023/06/26 10:42:46;;;;;;;158.73;150.60;;;35.30;53.00;;;;;;4864366;29;20267;-77
2023/06/26 10:45:22;;;;;;;165.27;157.10;;;35.50;52.30;;;;;;4862978;29;20303;-77
2023/06/26 10:47:52;;;;;;;168.05;159.63;;;35.20;52.50;;;;;;4863189;29;20596;-77
2023/06/26 10:50:18;;;;;;;38.53;36.28;;;34.50;52.70;;;;;;4878717;29;20580;-76
2023/06/26 10:52:44;;;;;;;40.20;37.72;;;34.40;53.70;;;;;;4880806;29;20203;-77
2023/06/26 10:55:10;;;;;;;49.00;46.35;;;34.90;53.90;;;;;;4864191;29;20212;-77
2023/06/26 10:57:38;;;;;;;56.15;52.95;;;35.20;53.90;;;;;;4878129;29;20192;-77
2023/06/26 11:00:11;;;;;;;135.88;129.15;;;35.30;54.10;;;;;;4861912;29;20222;-77
2023/06/26 11:03:22;;;;;;;141.27;134.20;;;35.30;52.70;;;;;;4878617;29;20263;-76
2023/06/26 11:06:13;;;;;;;54.53;51.58;;;35.00;54.10;;;;;;4862064;29;20239;-76
2023/06/26 11:08:54;;;;;;;34.80;32.75;;;35.00;54.20;;;;;;4878564;29;20196;-77
2023/06/26 11:11:22;;;;;;;61.85;58.15;;;35.30;54.10;;;;;;4862239;29;20195;-77
2023/06/26 11:13:48;;;;;;;99.70;94.22;;;35.20;54.00;;;;;;4877905;29;20290;-77
2023/06/26 11:16:14;;;;;;;147.90;140.57;;;35.60;53.90;;;;;;4863594;29;20219;-77
2023/06/26 11:18:45;;;;;;;148.18;140.98;;;35.70;52.80;;;;;;4867178;29;20732;-77
2023/06/26 11:21:14;;;;;;;146.82;139.65;;;35.50;53.20;;;;;;4879415;29;20565;-77
2023/06/26 11:23:40;;;;;;;42.28;39.97;;;35.10;53.60;;;;;;4879314;29;20361;-77
2023/06/26 11:26:18;;;;;;;9.73;8.98;;;34.20;54.90;;;;;;4865856;29;20294;-77
2023/06/26 11:28:56;;;;;;;49.95;47.10;;;33.50;55.90;;;;;;4881748;29;20291;-77
2023/06/26 11:31:33;;;;;;;129.90;123.50;;;33.10;57.50;;;;;;4863552;29;20563;-77
2023/06/26 11:34:04;;;;;;;75.43;71.47;;;33.40;56.90;;;;;;4863133;29;20220;-76
2023/06/26 11:36:31;;;;;;;77.28;73.25;;;33.50;55.80;;;;;;4863262;29;20295;-77
2023/06/26 11:38:58;;;;;;;34.55;32.53;;;33.60;56.00;;;;;;4863084;29;20192;-77
2023/06/26 11:41:26;;;;;;;45.58;42.80;;;33.90;55.10;;;;;;4864960;29;20189;-77
2023/06/26 11:43:52;;;;;;;13.30;12.32;;;34.20;56.00;;;;;;4849834;29;20204;-77
2023/06/26 11:46:21;;;;;;;10.68;9.98;;;34.60;55.80;;;;;;4889168;29;20200;-77
2023/06/26 11:48:50;;;;;;;26.80;24.95;;;35.60;55.40;;;;;;4880034;29;20184;-77
2023/06/26 11:51:16;;;;;;;106.60;101.05;;;36.10;54.50;;;;;;4858960;29;20190;-78
2023/06/26 11:53:44;;;;;;;111.18;105.68;;;36.30;53.80;;;;;;4875535;29;20208;-77
2023/06/26 11:56:11;;;;;;;110.97;105.28;;;35.70;54.30;;;;;;4890203;29;20196;-77
2023/06/26 11:58:54;;;;;;;121.38;115.13;;;35.90;54.90;;;;;;4868706;29;20188;-77
2023/06/26 12:01:22;;;;;;;19.15;17.75;;;35.90;55.00;;;;;;4865999;29;20192;-77
2023/06/26 12:03:49;;;;;;;25.40;23.50;;;34.30;56.80;;;;;;4865519;29;20216;-77
2023/06/26 12:06:15;;;;;;;94.68;89.82;;;33.80;58.20;;;;;;4858633;29;20228;-77
2023/06/26 12:08:42;;;;;;;133.73;126.82;;;33.80;58.50;;;;;;4884072;29;20233;-77
2023/06/26 12:11:08;;;;;;;65.63;62.05;;;34.20;58.30;;;;;;4892256;29;20203;-77
2023/06/26 12:13:34;;;;;;;18.88;17.77;;;34.60;57.30;;;;;;4896191;29;20243;-77
2023/06/26 12:16:00;;;;;;;20.10;18.90;;;34.90;56.60;;;;;;4881923;29;20248;-77
2023/06/26 12:18:32;;;;;;;23.30;21.90;;;34.80;57.10;;;;;;4879181;29;20216;-77
2023/06/26 12:20:58;;;;;;;24.08;21.88;;;34.80;57.60;;;;;;4866718;29;20208;-77
2023/06/26 12:23:31;;;;;;;18.63;17.05;;;35.10;57.90;;;;;;4886097;29;20625;-78
2023/06/26 12:25:57;;;;;;;15.10;13.85;;;35.30;57.80;;;;;;4886052;29;20217;-77
2023/06/26 12:28:23;;;;;;;22.45;20.80;;;35.20;57.90;;;;;;4889879;29;20227;-77
2023/06/26 12:31:15;;;;;;;16.15;14.70;;;35.20;58.60;;;;;;4883802;29;20264;-78
2023/06/26 12:33:43;;;;;;;218.88;207.57;;;34.60;58.60;;;;;;4890317;29;20271;-76
2023/06/26 12:36:15;;;;;;;159.15;151.35;;;33.50;60.80;;;;;;4890523;29;20375;-78
2023/06/26 12:38:41;;;;;;;57.67;54.38;;;33.10;62.10;;;;;;4886552;29;20200;-80
2023/06/26 12:41:15;;;;;;;65.32;61.42;;;33.30;61.90;;;;;;4871475;29;20219;-77
2023/06/26 12:43:42;;;;;;;93.25;88.43;;;33.60;61.90;;;;;;4890945;29;20227;-77
2023/06/26 12:46:08;;;;;;;94.32;89.47;;;33.90;61.70;;;;;;4887006;29;20196;-78
2023/06/26 12:48:47;;;;;;;127.97;121.40;;;33.90;61.50;;;;;;4885392;29;20548;-78
2023/06/26 12:51:14;;;;;;;195.43;185.40;;;34.40;60.80;;;;;;4886811;29;20685;-77
2023/06/26 12:53:40;;;;;;;138.27;131.07;;;34.60;59.50;;;;;;4886173;29;20587;-77
2023/06/26 12:56:07;;;;;;;65.72;62.35;;;33.60;62.60;;;;;;4888056;29;20565;-78
2023/06/26 12:58:33;;;;;;;127.70;120.85;;;33.90;62.60;;;;;;4865789;29;20602;-78
2023/06/26 13:00:59;;;;;;;173.57;164.70;;;34.80;60.80;;;;;;4882309;29;20296;-77
2023/06/26 13:03:25;;;;;;;125.53;118.88;;;35.30;59.20;;;;;;4876695;29;20764;-77
2023/06/26 13:05:51;;;;;;;105.25;99.82;;;34.80;59.30;;;;;;4876600;29;20234;-77
2023/06/26 13:08:18;;;;;;;59.08;55.92;;;35.00;59.20;;;;;;4875891;29;20216;-77
2023/06/26 13:10:44;;;;;;;85.93;81.57;;;34.90;59.80;;;;;;4875958;29;20192;-77
2023/06/26 13:13:13;;;;;;;29.55;27.52;;;35.20;59.50;;;;;;4876100;29;20264;-77
2023/06/26 13:15:38;;;;;;;10.85;10.15;;;35.60;58.70;;;;;;4876499;29;20207;-77
2023/06/26 13:18:05;;;;;;;26.15;24.30;;;35.80;57.50;;;;;;4875587;29;20194;-77
2023/06/26 13:20:31;;;;;;;228.63;217.07;;;34.50;59.30;;;;;;4876282;29;20248;-77
2023/06/26 13:22:59;;;;;;;173.02;163.77;;;33.60;62.30;;;;;;4852346;29;20234;-78
2023/06/26 13:25:29;;;;;;;151.23;143.60;;;33.60;61.80;;;;;;4845036;29;20196;-77
2023/06/26 13:27:55;;;;;;;177.10;168.23;;;34.20;61.00;;;;;;4859138;29;20237;-76
2023/06/26 13:30:21;;;;;;;185.38;175.70;;;34.60;59.70;;;;;;4876301;29;20188;-78
2023/06/26 13:32:50;;;;;;;186.65;176.88;;;34.10;60.50;;;;;;4865958;29;20209;-78
2023/06/26 13:35:16;;;;;;;173.60;164.85;;;34.30;59.90;;;;;;4866995;29;20326;-77
2023/06/26 13:37:42;;;;;;;176.55;167.20;;;34.30;59.80;;;;;;4878832;29;20758;-77
2023/06/26 13:40:08;;;;;;;129.32;122.63;;;34.60;59.30;;;;;;4863739;29;20676;-78
2023/06/26 13:42:36;;;;;;;144.98;137.70;;;34.70;58.90;;;;;;4890958;29;20208;-77
2023/06/26 13:45:03;;;;;;;90.18;85.47;;;34.60;60.10;;;;;;4872072;29;20227;-78
2023/06/26 13:47:29;;;;;;;50.35;47.42;;;34.80;58.70;;;;;;4860766;29;20207;-76
2023/06/26 13:49:54;;;;;;;101.47;96.38;;;34.80;57.80;;;;;;4876699;29;20192;-77
2023/06/26 13:52:20;;;;;;;122.80;116.45;;;34.60;58.70;;;;;;4876712;29;20196;-74
2023/06/26 13:54:46;;;;;;;175.13;166.40;;;34.40;58.90;;;;;;4876421;29;20208;-71
2023/06/26 13:57:12;;;;;;;193.68;183.95;;;33.90;59.30;;;;;;4857380;29;20200;-71
2023/06/26 13:59:39;;;;;;;180.38;171.40;;;33.90;58.90;;;;;;4871827;29;20188;-71
2023/06/26 14:02:06;;;;;;;164.77;156.10;;;34.00;59.30;;;;;;4875891;29;20239;-71
2023/06/26 14:04:32;;;;;;;118.80;112.75;;;33.90;59.30;;;;;;4875832;29;20205;-71
2023/06/26 14:06:58;;;;;;;55.75;52.78;;;34.30;58.50;;;;;;4875731;29;20288;-72
2023/06/26 14:09:24;;;;;;;87.97;83.47;;;34.30;57.30;;;;;;4859736;29;20296;-72
2023/06/26 14:11:50;;;;;;;26.67;24.75;;;34.60;57.90;;;;;;4879048;29;20199;-72
2023/06/26 14:14:16;;;;;;;123.60;116.90;;;33.90;56.60;;;;;;4879272;29;20276;-71
2023/06/26 14:16:42;;;;;;;140.98;133.90;;;33.40;58.10;;;;;;4879122;29;20620;-71
2023/06/26 14:19:15;;;;;;;139.40;132.40;;;33.40;57.20;;;;;;4878460;29;20199;-71
2023/06/26 14:21:41;;;;;;;131.55;124.93;;;33.40;57.20;;;;;;4879028;29;20219;-71
2023/06/26 14:24:07;;;;;;;101.55;96.57;;;33.50;56.80;;;;;;4879221;29;20745;-71
2023/06/26 14:26:33;;;;;;;92.78;87.95;;;33.90;56.30;;;;;;4877998;29;20197;-71
2023/06/26 14:29:00;;;;;;;98.85;93.68;;;33.40;56.20;;;;;;4862396;29;20192;-71
2023/06/26 14:31:26;;;;;;;95.68;90.57;;;33.40;56.10;;;;;;4862661;29;20200;-71
2023/06/26 14:33:52;;;;;;;67.25;63.70;;;33.30;56.20;;;;;;4878836;29;20275;-71
2023/06/26 14:36:18;;;;;;;64.70;61.35;;;33.30;54.90;;;;;;4879185;29;20653;-71
2023/06/26 14:38:44;;;;;;;71.18;67.53;;;33.10;55.00;;;;;;4878818;29;20283;-71
2023/06/26 14:41:11;;;;;;;26.95;25.40;;;33.60;55.10;;;;;;4878723;29;20203;-71
2023/06/26 14:43:37;;;;;;;8.57;7.75;;;34.40;54.80;;;;;;4878822;29;20220;-71
2023/06/26 14:46:03;;;;;;;7.78;7.18;;;34.50;53.50;;;;;;4878868;29;20251;-71
2023/06/26 14:48:29;;;;;;;8.85;8.02;;;34.40;53.50;;;;;;4878344;29;20283;-71
2023/06/26 14:50:55;;;;;;;8.68;8.00;;;33.70;54.30;;;;;;4878816;29;20196;-71
2023/06/26 14:53:20;;;;;;;16.35;15.30;;;33.40;54.30;;;;;;4878782;29;20216;-72
2023/06/26 14:55:46;;;;;;;10.73;9.98;;;33.70;54.60;;;;;;4879026;29;20223;-71
2023/06/26 14:58:12;;;;;;;7.25;6.32;;;34.00;54.40;;;;;;4878701;29;20210;-72
2023/06/26 15:00:38;;;;;;;7.07;6.50;;;33.80;53.70;;;;;;4878902;29;20264;-72
2023/06/26 15:03:03;;;;;;;10.23;7.20;;;33.80;53.70;;;;;;4878269;29;20228;-71
2023/06/26 15:05:29;;;;;;;9.65;9.00;;;33.60;53.90;;;;;;4878871;29;20188;-71
2023/06/26 15:07:55;;;;;;;46.22;43.28;;;33.20;54.10;;;;;;4878060;29;20188;-71
2023/06/26 15:10:21;;;;;;;56.42;53.38;;;33.00;55.10;;;;;;4878392;29;20572;-72
2023/06/26 15:12:47;;;;;;;90.75;86.00;;;32.80;54.90;;;;;;4878676;29;20200;-71
2023/06/26 15:15:13;;;;;;;68.38;64.72;;;32.90;55.40;;;;;;4881986;23;20237;-72
2023/06/26 15:17:39;;;;;;;65.55;62.17;;;32.90;54.60;;;;;;4841775;29;20185;-70
2023/06/26 15:20:05;;;;;;;101.95;96.65;;;32.90;54.30;;;;;;4855489;29;20240;-71
2023/06/26 15:22:31;;;;;;;110.50;104.75;;;32.40;55.40;;;;;;4842588;29;20317;-72
2023/06/26 15:24:57;;;;;;;98.05;93.05;;;32.50;55.60;;;;;;4859700;29;20312;-72
2023/06/26 15:27:23;;;;;;;52.80;50.05;;;32.20;55.80;;;;;;4859443;29;20650;-72